Leesburg, AL (35983)

10:16 AM CST on December 26, 2014 (GMT -0600)
The Ridges | Change Station
CLOSE
Current Station
Personal Weather Station
Location: Cedar Bluff, AL
Elevation: 639 ft
Nearby Weather Stations

Elev 639 ft 34.29 °N, 85.63 °W | Updated 6 minutes ago

Partly Cloudy
Partly Cloudy
50.9 °F
Feels Like 50.9 °F
N
3.1
Wind Variable Wind from North
Gusts 3.8 mph

Today
High -- | Low -- °F
--% Chance of Precip.
Yesterday
High -- | Low -- °F
Precip. -- in
6:47 AM 4:40 PM
Waxing Crescent, 27% visible
Pressure 30.37 in
Visibility 10.0 miles
Clouds Clear
Dew Point 21 °F
Humidity 30%
Rainfall 0.00 in
Snow Depth Not available.
UV 2 out of 12
Pollen 1.20 out of 12
Air Quality Not available.
Flu Activity Not available.
METAR K4A9 261555Z AUTO 00000KT 10SM CLR 05/01 A3037 RMK AO2

More Conditions Fewer Conditions

Pressure 30.37 in
Visibility 10.0 miles
Clouds Clear
Dew Point 21 °F
Humidity 30%
Rainfall 0.00 in
Snow Depth Not available.
UV 2 out of 12
Pollen 1.20 out of 12
Air Quality Not available.
Flu Activity Not available.
METAR K4A9 261555Z AUTO 00000KT 10SM CLR 05/01 A3037 RMK AO2

More Conditions Fewer Conditions

10-Day Weather Forecast

Almanac

Astronomy

Dec. 26, 2014 Rise Set
Actual Time
Civil Twilight
Nautical Twilight
Astronomical Twilight
Moon
Length of Visible Light
Length of Day
Tomorrow will be .
, % of the Moon is Illuminated

Today's Extremes

State Highs State Lows

Community

WunderPhotos

Upload Photos

1,780,625 photos uploaded!

WunderBlogs® & News

Nearby

Air Quality

  Air Quality AQ Index Pollutant
Not available.

Snow Depth

Station Depth Elevation

Earthquake Activity

City Distance Mag. Time & Date
Minimum magnitude displayed is 2.5.

Coastal Water Temperatures

Place Temperature

Nearby Weather Stations